createdAt,value
2017-10-02T00:00:20.284Z,92.80
2017-10-02T00:05:22.140Z,93.20
2017-10-02T00:10:23.996Z,93.90
2017-10-02T00:15:25.873Z,92.70
2017-10-02T00:20:28.386Z,93.40
2017-10-02T00:25:30.160Z,93.10
2017-10-02T00:30:31.921Z,92.80
2017-10-02T00:35:33.710Z,93.70
2017-10-02T00:40:35.589Z,92.90
2017-10-02T00:45:37.320Z,92.60
2017-10-02T00:50:39.241Z,93.20
2017-10-02T00:55:41.120Z,94.30
2017-10-02T01:00:42.972Z,94.90
2017-10-02T01:05:44.879Z,94.00
2017-10-02T01:10:46.725Z,93.30
2017-10-02T01:15:48.630Z,92.40
2017-10-02T01:20:50.505Z,91.30
2017-10-02T01:25:52.259Z,90.50
2017-10-02T01:30:54.158Z,89.80
2017-10-02T01:35:56.009Z,86.80
2017-10-02T01:40:57.913Z,86.40
2017-10-02T01:45:59.791Z,85.50
2017-10-02T01:51:02.154Z,83.90
2017-10-02T01:56:03.954Z,82.40
2017-10-02T02:01:05.834Z,82.70
2017-10-02T02:06:07.689Z,83.90
2017-10-02T02:11:09.594Z,84.60
2017-10-02T02:16:11.347Z,85.60
2017-10-02T02:21:13.056Z,86.20
2017-10-02T02:26:15.746Z,87.60
2017-10-02T02:31:18.363Z,87.60
2017-10-02T02:36:20.583Z,88.10
2017-10-02T02:41:37.344Z,89.40
2017-10-02T02:46:57.954Z,89.00
2017-10-02T02:52:17.906Z,89.00
2017-10-02T02:57:37.519Z,88.50
2017-10-02T03:02:57.516Z,88.30
2017-10-02T03:08:17.663Z,87.50
2017-10-02T03:13:36.959Z,85.90
2017-10-02T03:18:41.585Z,84.60
2017-10-02T03:23:43.463Z,81.00
2017-10-02T03:28:45.339Z,78.70
2017-10-02T03:33:47.216Z,78.20
2017-10-02T03:38:49.096Z,77.40
2017-10-02T03:43:50.972Z,78.60
2017-10-02T03:48:52.850Z,79.60
2017-10-02T03:53:54.601Z,78.40
2017-10-02T03:58:56.374Z,78.00
2017-10-02T04:03:58.276Z,78.20
2017-10-02T04:09:00.062Z,78.60
2017-10-02T04:14:01.930Z,79.50
2017-10-02T04:19:03.784Z,80.00
2017-10-02T04:24:05.623Z,80.20
2017-10-02T04:29:07.562Z,81.40
2017-10-02T04:34:09.439Z,81.20
2017-10-02T04:39:11.256Z,81.90
2017-10-02T04:44:13.195Z,82.80
2017-10-02T04:49:15.044Z,82.80
2017-10-02T04:54:16.951Z,82.90
2017-10-02T04:59:18.803Z,83.20
2017-10-02T05:04:20.704Z,82.80
2017-10-02T05:09:22.765Z,82.80
2017-10-02T05:14:24.663Z,83.10
2017-10-02T05:19:26.512Z,83.30
2017-10-02T05:24:28.418Z,83.30
2017-10-02T05:29:30.295Z,82.30
2017-10-02T05:34:32.178Z,81.70
2017-10-02T05:39:34.055Z,81.90
2017-10-02T05:44:35.930Z,81.80
2017-10-02T05:49:37.758Z,81.80
2017-10-02T05:54:39.698Z,82.40
2017-10-02T05:59:42.585Z,84.30
2017-10-02T06:04:44.463Z,87.10
2017-10-02T06:09:46.277Z,89.90
2017-10-02T06:14:48.216Z,90.30
2017-10-02T06:19:50.094Z,90.60
2017-10-02T06:24:51.972Z,89.30
2017-10-02T06:29:53.821Z,87.90
2017-10-02T06:34:55.726Z,88.30
2017-10-02T06:39:57.579Z,87.20
2017-10-02T06:44:59.458Z,88.00
2017-10-02T06:50:01.513Z,86.30
2017-10-02T06:55:03.441Z,87.40
2017-10-02T07:00:05.319Z,88.50
2017-10-02T07:05:07.172Z,89.30
2017-10-02T07:10:09.415Z,90.70
2017-10-02T07:15:11.361Z,88.70
2017-10-02T07:20:13.080Z,88.90
2017-10-02T07:25:14.910Z,89.90
2017-10-02T07:30:16.787Z,89.40
2017-10-02T07:35:18.512Z,91.50
2017-10-02T07:40:20.312Z,92.00
2017-10-02T07:45:22.027Z,93.40
2017-10-02T07:50:24.606Z,98.90
2017-10-02T07:55:26.482Z,98.70
2017-10-02T08:00:28.359Z,99.90
2017-10-02T08:05:30.142Z,99.60
2017-10-02T08:10:32.013Z,99.90
2017-10-02T08:15:33.892Z,99.90
2017-10-02T08:20:35.678Z,99.90
2017-10-02T08:25:37.442Z,99.90
2017-10-02T08:30:39.181Z,99.90
2017-10-02T08:35:41.174Z,98.90
2017-10-02T08:40:43.072Z,97.80
2017-10-02T08:45:45.320Z,97.30
2017-10-02T08:50:47.237Z,97.20
2017-10-02T08:55:49.012Z,96.70
2017-10-02T09:00:50.889Z,94.80
2017-10-02T09:05:53.790Z,94.90
2017-10-02T09:10:56.194Z,94.70
2017-10-02T09:15:58.774Z,92.80
2017-10-02T09:21:01.133Z,92.80
2017-10-02T09:26:02.857Z,93.40
2017-10-02T09:31:05.339Z,91.20
2017-10-02T09:36:08.128Z,91.00
2017-10-02T09:41:10.005Z,89.50
2017-10-02T09:46:11.883Z,89.20
2017-10-02T09:51:13.759Z,88.90
2017-10-02T09:56:15.508Z,90.20
2017-10-02T10:01:17.590Z,89.50
2017-10-02T10:06:19.495Z,88.60
2017-10-02T10:11:21.980Z,88.30
2017-10-02T10:16:24.146Z,88.00
2017-10-02T10:21:26.020Z,87.30
2017-10-02T10:26:27.780Z,88.10
2017-10-02T10:31:29.598Z,88.80
2017-10-02T10:36:31.452Z,89.60
2017-10-02T10:41:33.164Z,90.40
2017-10-02T10:46:35.025Z,91.90
2017-10-02T10:51:36.903Z,91.10
2017-10-02T10:56:38.782Z,91.40
2017-10-02T11:01:40.516Z,91.10
2017-10-02T11:06:42.332Z,90.80
2017-10-02T11:11:44.209Z,92.10
2017-10-02T11:16:46.084Z,96.30
2017-10-02T11:21:47.940Z,98.20
2017-10-02T11:26:49.819Z,99.90
2017-10-02T11:31:51.718Z,99.90
2017-10-02T11:36:53.591Z,99.90
2017-10-02T11:41:55.473Z,99.90
2017-10-02T11:46:57.351Z,99.90
2017-10-02T11:51:59.204Z,99.90
2017-10-02T11:57:01.720Z,99.90
2017-10-02T12:02:04.023Z,99.90
2017-10-02T12:07:05.789Z,99.90
2017-10-02T12:12:07.660Z,99.90
2017-10-02T12:17:09.510Z,99.90
2017-10-02T12:22:12.221Z,99.90
2017-10-02T12:27:14.111Z,99.90
2017-10-02T12:32:15.988Z,99.90
2017-10-02T12:37:18.582Z,98.60
2017-10-02T12:42:20.671Z,98.60
2017-10-02T12:47:23.149Z,97.50
2017-10-02T12:52:25.013Z,97.80
2017-10-02T12:57:26.913Z,98.30
2017-10-02T13:02:28.789Z,98.70
2017-10-02T13:07:30.640Z,99.00
2017-10-02T13:12:32.523Z,99.70
2017-10-02T13:17:34.402Z,99.90
2017-10-02T13:22:36.744Z,99.90
2017-10-02T13:27:38.586Z,99.90
2017-10-02T13:32:40.360Z,99.90
2017-10-02T13:37:42.241Z,99.90
2017-10-02T13:42:44.115Z,99.90
2017-10-02T13:47:45.904Z,99.90
2017-10-02T13:52:48.484Z,99.90
2017-10-02T13:57:50.362Z,99.90
2017-10-02T14:02:52.217Z,99.90
2017-10-02T14:07:54.001Z,99.90
2017-10-02T14:12:55.995Z,99.90
2017-10-02T14:17:57.792Z,99.90
2017-10-02T14:22:59.647Z,99.90
2017-10-02T14:28:01.526Z,99.90
2017-10-02T14:33:03.401Z,99.90
2017-10-02T14:38:05.281Z,99.90
2017-10-02T14:43:09.120Z,99.90
2017-10-02T14:48:11.698Z,99.90
2017-10-02T14:53:14.291Z,99.90
2017-10-02T14:58:16.168Z,99.90
2017-10-02T15:03:18.025Z,99.90
2017-10-02T15:08:19.924Z,99.90
2017-10-02T15:13:22.164Z,99.90
2017-10-02T15:18:24.064Z,99.90
2017-10-02T15:23:25.964Z,99.90
2017-10-02T15:28:27.822Z,99.90
2017-10-02T15:33:29.720Z,99.90
2017-10-02T15:38:31.494Z,99.90
2017-10-02T15:43:33.373Z,99.90
2017-10-02T15:48:35.228Z,99.90
2017-10-02T15:53:37.104Z,99.90
2017-10-02T15:58:39.756Z,99.90
2017-10-02T16:03:41.701Z,99.90
2017-10-02T16:08:43.494Z,99.90
2017-10-02T16:13:46.070Z,99.90
2017-10-02T16:18:47.948Z,99.90
2017-10-02T16:23:49.826Z,99.90
2017-10-02T16:28:51.911Z,99.90
2017-10-02T16:33:53.787Z,99.90
2017-10-02T16:38:55.668Z,99.90
2017-10-02T16:43:57.541Z,99.90
2017-10-02T16:48:59.419Z,99.90
2017-10-02T16:54:01.268Z,99.90
2017-10-02T16:59:04.149Z,99.90
2017-10-02T17:04:06.050Z,99.90
2017-10-02T17:09:07.930Z,99.90
2017-10-02T17:14:09.739Z,99.90
2017-10-02T17:19:11.707Z,99.90
2017-10-02T17:24:13.584Z,99.90
2017-10-02T17:29:15.952Z,99.90
2017-10-02T17:34:17.752Z,99.90
2017-10-02T17:39:19.627Z,99.90
2017-10-02T17:44:22.323Z,99.90
2017-10-02T17:49:24.201Z,99.90
2017-10-02T17:54:26.079Z,99.90
2017-10-02T17:59:27.932Z,99.90
2017-10-02T18:04:29.655Z,99.90
2017-10-02T18:09:32.709Z,99.90
2017-10-02T18:14:34.816Z,99.90
2017-10-02T18:19:37.141Z,99.90
2017-10-02T18:24:40.296Z,99.90
2017-10-02T18:29:43.993Z,99.90
2017-10-02T18:34:47.434Z,99.90
2017-10-02T18:39:50.145Z,99.90
2017-10-02T18:44:53.331Z,99.90
2017-10-02T18:49:56.821Z,99.90
2017-10-02T18:54:59.802Z,99.90
2017-10-02T19:00:03.345Z,99.90
2017-10-02T19:05:06.730Z,99.90
2017-10-02T19:10:09.136Z,99.90
2017-10-02T19:15:11.556Z,99.90
2017-10-02T19:20:14.381Z,99.90
2017-10-02T19:25:17.834Z,99.90
2017-10-02T19:30:21.164Z,99.90
2017-10-02T19:35:23.904Z,99.90
2017-10-02T19:40:26.753Z,99.90
2017-10-02T19:45:29.760Z,99.90
2017-10-02T19:50:31.760Z,99.90
2017-10-02T19:55:33.668Z,99.90
2017-10-02T20:00:36.966Z,99.90
2017-10-02T20:05:38.855Z,99.90
2017-10-02T20:10:40.732Z,99.90
2017-10-02T20:15:42.580Z,99.90
2017-10-02T20:20:44.565Z,99.90
2017-10-02T20:25:46.467Z,99.90
2017-10-02T20:30:48.318Z,99.90
2017-10-02T20:35:50.160Z,99.90
2017-10-02T20:40:52.099Z,99.90
2017-10-02T20:45:53.911Z,99.90
2017-10-02T20:50:55.806Z,99.90
2017-10-02T20:55:57.733Z,99.90
2017-10-02T21:00:59.609Z,99.90
2017-10-02T21:06:01.462Z,99.90
2017-10-02T21:11:03.367Z,99.90
2017-10-02T21:16:05.242Z,99.90
2017-10-02T21:21:07.433Z,99.90
2017-10-02T21:26:09.240Z,99.90
2017-10-02T21:31:11.119Z,99.90
2017-10-02T21:36:12.956Z,99.90
2017-10-02T21:41:15.961Z,99.90
2017-10-02T21:46:18.940Z,99.90
2017-10-02T21:51:21.049Z,99.90
2017-10-02T21:56:22.925Z,99.90
2017-10-02T22:01:24.954Z,99.90
2017-10-02T22:06:27.801Z,99.90
2017-10-02T22:11:30.374Z,99.90
2017-10-02T22:16:32.248Z,99.90
2017-10-02T22:21:34.155Z,99.90
2017-10-02T22:26:36.339Z,99.90
2017-10-02T22:31:38.216Z,99.90
2017-10-02T22:36:40.093Z,99.90
2017-10-02T22:41:42.073Z,99.90
2017-10-02T22:46:43.952Z,99.90
2017-10-02T22:51:46.035Z,99.90
2017-10-02T22:56:47.983Z,99.90
2017-10-02T23:01:49.794Z,99.90
2017-10-02T23:06:51.844Z,99.90
2017-10-02T23:11:53.747Z,99.90
2017-10-02T23:16:55.595Z,99.90
2017-10-02T23:21:57.504Z,99.90
2017-10-02T23:26:59.312Z,99.90
2017-10-02T23:32:01.874Z,99.90
2017-10-02T23:37:03.783Z,99.90
2017-10-02T23:42:05.729Z,99.90
2017-10-02T23:47:07.607Z,99.90
2017-10-02T23:52:09.485Z,99.90
2017-10-02T23:57:11.264Z,99.90
